Maseskar, Sweden

5:52 AM CEST on July 27, 2016 (GMT +0200)
Mollösund, Sweden | | Change Station

Elev 69 ft 58.07 °N, 11.47 °E | Updated 8 minutes ago

Partly Cloudy
Partly Cloudy
61.2 °F
Feels Like 61.2 °F
N
5.0
Wind Variable Wind from South
Gusts 12.0 mph

Today
High -- | Low -- °F
--% Chance of Precip.
Yesterday
High -- | Low -- °F
Precip. -- in
Pressure 30.04 in
Visibility -9999.0 miles
Clouds Few 2400 ft
Dew Point 56 °F
Humidity 83%
Rainfall 0.00 in
Snow Depth Not available.
4:57 AM 9:43 PM
Waning Gibbous, 48% visible
METAR ESGP 270320Z AUTO 19003KT 4800 FEW024/// 11/10 Q1017
Pressure 30.04 in
Visibility -9999.0 miles
Clouds Few 2400 ft
Dew Point 56 °F
Humidity 83%
Rainfall 0.00 in
Snow Depth Not available.
4:57 AM 9:43 PM
Waning Gibbous, 48% visible
METAR ESGP 270320Z AUTO 19003KT 4800 FEW024/// 11/10 Q1017

10-Day Weather Forecast

×

Almanac

Astronomy

Jul. 27, 2016 Rise Set
Actual Time
Civil Twilight
Nautical Twilight
Astronomical Twilight
Moon
Length of Visible Light
Length of Day
Tomorrow will be .
, % of the Moon is Illuminated

Today's Extremes

Country Highs Country Lows

Community

WunderPhotos

Upload Photos

1,927,797 photos uploaded!

WunderBlog® & News

Nearby

Air Quality

  Air Quality AQ Index Pollutant
Not available.

Snow Depth

Station Depth Elevation

Earthquake Activity

City Distance Mag. Time & Date
Minimum magnitude displayed is 2.5.

Coastal Water Temperatures

Place Temperature

Stations

Nearby Weather Stations

Station Location Temp. Windchill Dew Point Humidity Wind Precip. Elev Updated Type